Time;durP1;ratioP1;P1;durP2;ratioP2;P2;SDS_P1;SDS_P2;PMS_P1;PMS_P2;Temp;Humidity;BMP_temperature;BMP_pressure;BME280_temperature;BME280_humidity;BME280_pressure;Samples;Min_cycle;Max_cycle;Signal;HPM_P1;HPM_P2
2023/04/04 00:00:20;;;;;;;;;;;0.50;99.90;;;;;;5074714;28;20300;-63
2023/04/04 00:02:51;;;;;;;;;;;0.50;99.90;;;;;;5071729;28;19924;-63
2023/04/04 00:05:23;;;;;;;;;;;0.50;99.90;;;;;;5072665;28;19974;-63
2023/04/04 00:07:56;;;;;;;;;;;0.40;99.90;;;;;;5054308;28;20609;-63
2023/04/04 00:10:28;;;;;;;;;;;0.40;99.90;;;;;;5071311;28;20384;-63
2023/04/04 00:13:00;;;;;;;;;;;0.40;99.90;;;;;;5056815;28;19924;-63
2023/04/04 00:15:33;;;;;;;;;;;0.40;99.90;;;;;;5070741;28;19920;-63
2023/04/04 00:18:04;;;;;;;;;;;0.30;99.90;;;;;;5053425;28;19920;-62
2023/04/04 00:20:36;;;;;;;;;;;0.30;99.90;;;;;;5055866;28;19970;-63
2023/04/04 00:23:09;;;;;;;;;;;0.30;99.90;;;;;;5056344;28;20055;-63
2023/04/04 00:25:42;;;;;;;;;;;0.20;99.90;;;;;;5069638;28;19920;-64
2023/04/04 00:28:14;;;;;;;;;;;0.20;99.90;;;;;;5068821;28;19920;-62
2023/04/04 00:30:41;;;;;;;;;;;0.20;99.90;;;;;;5069615;28;19920;-63
2023/04/04 00:33:13;;;;;;;;;;;0.20;99.90;;;;;;5053537;28;20392;-63
2023/04/04 00:35:46;;;;;;;;;;;0.20;99.90;;;;;;5070379;28;19931;-63
2023/04/04 00:38:13;;;;;;;;;;;0.10;99.90;;;;;;5066990;28;19920;-63
2023/04/04 00:40:47;;;;;;;;;;;0.10;99.90;;;;;;5071194;28;20404;-63
2023/04/04 00:43:19;;;;;;;;;;;0.10;99.90;;;;;;5049141;28;19921;-63
2023/04/04 00:45:51;;;;;;;;;;;0.00;99.90;;;;;;5070578;28;20023;-62
2023/04/04 00:48:19;;;;;;;;;;;0.00;99.90;;;;;;5071879;28;19990;-63
2023/04/04 00:50:51;;;;;;;;;;;0.00;99.90;;;;;;5068802;28;20416;-63
2023/04/04 00:53:23;;;;;;;;;;;0.00;99.90;;;;;;5072124;28;20383;-63
2023/04/04 00:55:54;;;;;;;;;;;-0.10;99.90;;;;;;5059238;28;19920;-63
2023/04/04 00:58:26;;;;;;;;;;;-0.10;99.90;;;;;;5064335;28;19928;-63
2023/04/04 01:00:58;;;;;;;;;;;-0.10;99.90;;;;;;5052557;28;19932;-63
2023/04/04 01:03:31;;;;;;;;;;;-0.20;99.90;;;;;;5070908;28;20063;-63
2023/04/04 01:06:02;;;;;;;;;;;-0.20;99.90;;;;;;5057524;28;20381;-63
2023/04/04 01:08:35;;;;;;;;;;;-0.20;99.90;;;;;;5069579;28;19931;-62
2023/04/04 01:11:02;;;;;;;;;;;-0.20;99.90;;;;;;5068358;28;20596;-62
2023/04/04 01:13:34;;;;;;;;;;;-0.20;99.90;;;;;;5052784;28;19921;-62
2023/04/04 01:16:07;;;;;;;;;;;-0.30;99.90;;;;;;5039385;28;20343;-63
2023/04/04 01:18:40;;;;;;;;;;;-0.30;99.90;;;;;;5034538;28;20490;-63
2023/04/04 01:21:09;;;;;;;;;;;-0.30;99.90;;;;;;5067755;28;19925;-63
2023/04/04 01:23:57;;;;;;;;;;;-0.30;99.90;;;;;;5056113;28;20323;-63
2023/04/04 01:26:27;;;;;;;;;;;-0.40;99.90;;;;;;5051406;28;19928;-62
2023/04/04 01:29:01;;;;;;;;;;;-0.40;99.90;;;;;;5053790;28;20331;-63
2023/04/04 01:31:36;;;;;;;;;;;-0.40;99.90;;;;;;5070194;28;19931;-63
2023/04/04 01:34:17;;;;;;;;;;;-0.50;99.90;;;;;;5052979;28;19924;-63
2023/04/04 01:36:48;;;;;;;;;;;-0.50;99.90;;;;;;5053051;28;20018;-62
2023/04/04 01:39:15;;;;;;;;;;;-0.50;99.90;;;;;;5051439;28;19928;-62
2023/04/04 01:41:47;;;;;;;;;;;-0.50;99.90;;;;;;5051380;28;19924;-62
2023/04/04 01:44:19;;;;;;;;;;;-0.50;99.90;;;;;;5052475;28;19924;-62
2023/04/04 01:46:52;;;;;;;;;;;-0.50;99.90;;;;;;5065779;28;19932;-62
2023/04/04 01:49:24;;;;;;;;;;;-0.50;99.90;;;;;;5065919;28;19931;-62
2023/04/04 01:51:56;;;;;;;;;;;-0.50;99.90;;;;;;5066354;28;20019;-68
2023/04/04 01:54:28;;;;;;;;;;;-0.60;99.90;;;;;;5070862;28;20018;-62
2023/04/04 01:56:59;;;;;;;;;;;-0.60;99.90;;;;;;5051508;28;19920;-62
2023/04/04 01:59:26;;;;;;;;;;;-0.60;99.90;;;;;;5051916;28;19928;-62
2023/04/04 02:01:53;;;;;;;;;;;-0.60;99.90;;;;;;5064621;28;20582;-62
2023/04/04 02:04:25;;;;;;;;;;;-0.70;99.90;;;;;;5051541;28;19924;-62
2023/04/04 02:06:58;;;;;;;;;;;-0.70;99.90;;;;;;5049153;28;19924;-63
2023/04/04 02:09:29;;;;;;;;;;;-0.70;99.90;;;;;;5050100;28;20380;-62
2023/04/04 02:12:01;;;;;;;;;;;-0.70;99.90;;;;;;5052774;28;19921;-62
2023/04/04 02:14:28;;;;;;;;;;;-0.70;99.90;;;;;;5068629;28;19970;-62
2023/04/04 02:17:00;;;;;;;;;;;-0.70;99.90;;;;;;5040150;28;19959;-62
2023/04/04 02:19:32;;;;;;;;;;;-0.70;99.90;;;;;;5053796;28;20334;-62
2023/04/04 02:22:04;;;;;;;;;;;-0.70;99.90;;;;;;5052898;28;19925;-63
2023/04/04 02:24:36;;;;;;;;;;;-0.80;99.90;;;;;;5068535;28;19920;-63
2023/04/04 02:27:03;;;;;;;;;;;-0.80;99.90;;;;;;5049866;28;19927;-63
2023/04/04 02:29:35;;;;;;;;;;;-0.80;99.90;;;;;;5066855;28;20382;-63
2023/04/04 02:32:06;;;;;;;;;;;-0.90;99.90;;;;;;5049929;28;19948;-63
2023/04/04 02:34:33;;;;;;;;;;;-0.90;99.90;;;;;;5067216;28;20300;-63
2023/04/04 02:37:05;;;;;;;;;;;-0.90;99.90;;;;;;5066973;28;20679;-62
2023/04/04 02:39:37;;;;;;;;;;;-0.90;99.90;;;;;;5069008;28;19938;-62
2023/04/04 02:42:08;;;;;;;;;;;-1.00;99.90;;;;;;5037152;28;20398;-63
2023/04/04 02:44:40;;;;;;;;;;;-1.00;99.90;;;;;;5068369;28;19924;-63
2023/04/04 02:47:15;;;;;;;;;;;-1.00;99.90;;;;;;5066312;28;19927;-63
2023/04/04 02:49:47;;;;;;;;;;;-1.10;99.90;;;;;;5063478;28;19928;-63
2023/04/04 02:52:19;;;;;;;;;;;-1.10;99.90;;;;;;5063554;28;20357;-63
2023/04/04 02:54:54;;;;;;;;;;;-1.10;99.90;;;;;;5064571;28;19931;-63
2023/04/04 02:57:31;;;;;;;;;;;-1.10;99.90;;;;;;5048563;28;20376;-62
2023/04/04 03:00:03;;;;;;;;;;;-1.10;99.90;;;;;;5066654;28;20375;-63
2023/04/04 03:02:35;;;;;;;;;;;-1.20;99.90;;;;;;5065464;28;19931;-63
2023/04/04 03:05:07;;;;;;;;;;;-1.20;99.90;;;;;;5069250;28;19928;-63
2023/04/04 03:07:39;;;;;;;;;;;-1.20;99.90;;;;;;5067850;28;19920;-62
2023/04/04 03:10:11;;;;;;;;;;;-1.20;99.90;;;;;;5066335;28;19924;-63
2023/04/04 03:12:44;;;;;;;;;;;-1.20;99.90;;;;;;5049707;28;19924;-63
2023/04/04 03:15:16;;;;;;;;;;;-1.30;99.90;;;;;;5035800;28;19920;-63
2023/04/04 03:17:48;;;;;;;;;;;-1.30;99.90;;;;;;5052328;28;19927;-63
2023/04/04 03:20:25;;;;;;;;;;;-1.30;99.90;;;;;;5035545;28;19924;-62
2023/04/04 03:22:57;;;;;;;;;;;-1.30;99.90;;;;;;5061358;28;19920;-63
2023/04/04 03:25:29;;;;;;;;;;;-1.30;99.90;;;;;;5065910;28;19927;-62
2023/04/04 03:28:08;;;;;;;;;;;-1.30;99.90;;;;;;5068968;28;19974;-62
2023/04/04 03:30:35;;;;;;;;;;;-1.40;99.90;;;;;;5069393;28;19920;-62
2023/04/04 03:33:07;;;;;;;;;;;-1.40;99.90;;;;;;5061285;28;19928;-63
2023/04/04 03:35:38;;;;;;;;;;;-1.40;99.90;;;;;;5060996;28;19920;-63
2023/04/04 03:38:10;;;;;;;;;;;-1.40;99.90;;;;;;5049836;28;19931;-62
2023/04/04 03:40:42;;;;;;;;;;;-1.40;99.90;;;;;;5051074;28;19928;-63
2023/04/04 03:43:14;;;;;;;;;;;-1.40;99.90;;;;;;5051780;28;20359;-63
2023/04/04 03:45:41;;;;;;;;;;;-1.40;99.90;;;;;;5067379;28;19920;-62
2023/04/04 03:48:08;;;;;;;;;;;-1.40;99.90;;;;;;5067319;28;20400;-63
2023/04/04 03:50:40;;;;;;;;;;;-1.50;99.90;;;;;;5069419;28;19920;-62
2023/04/04 03:53:12;;;;;;;;;;;-1.50;99.90;;;;;;5050158;28;20490;-62
2023/04/04 03:55:43;;;;;;;;;;;-1.50;99.90;;;;;;5066942;28;19970;-62
2023/04/04 03:58:15;;;;;;;;;;;-1.50;99.90;;;;;;5048795;28;20385;-63
2023/04/04 04:00:47;;;;;;;;;;;-1.50;99.90;;;;;;5036985;28;19924;-64
2023/04/04 04:03:20;;;;;;;;;;;-1.50;99.90;;;;;;5064021;28;19924;-63
2023/04/04 04:05:52;;;;;;;;;;;-1.60;99.90;;;;;;5057055;28;19920;-63
2023/04/04 04:08:19;;;;;;;;;;;-1.60;99.90;;;;;;5056099;28;20393;-63
2023/04/04 04:10:50;;;;;;;;;;;-1.60;99.90;;;;;;5051814;28;19920;-63
2023/04/04 04:13:22;;;;;;;;;;;-1.60;99.90;;;;;;5049823;28;19920;-62
2023/04/04 04:15:55;;;;;;;;;;;-1.60;99.90;;;;;;5061177;28;20462;-63
2023/04/04 04:18:27;;;;;;;;;;;-1.70;99.90;;;;;;5060167;28;19931;-63
2023/04/04 04:21:01;;;;;;;;;;;-1.70;99.90;;;;;;5033939;28;20289;-63
2023/04/04 04:23:33;;;;;;;;;;;-1.60;99.90;;;;;;5069228;28;20293;-63
2023/04/04 04:26:05;;;;;;;;;;;-1.70;99.90;;;;;;5067838;28;19927;-63
2023/04/04 04:28:37;;;;;;;;;;;-1.70;99.90;;;;;;5055366;28;20095;-63
2023/04/04 04:31:09;;;;;;;;;;;-1.70;99.90;;;;;;5056608;28;19942;-63
2023/04/04 04:33:45;;;;;;;;;;;-1.70;99.90;;;;;;5067868;28;19982;-63
2023/04/04 04:36:20;;;;;;;;;;;-1.70;99.90;;;;;;5052282;28;19920;-63
2023/04/04 04:39:12;;;;;;;;;;;-1.70;99.90;;;;;;5050418;28;19935;-63
2023/04/04 04:41:57;;;;;;;;;;;-1.70;99.90;;;;;;5063045;28;20019;-63
2023/04/04 04:44:29;;;;;;;;;;;-1.70;99.90;;;;;;5064975;28;19928;-63
2023/04/04 04:47:02;;;;;;;;;;;-1.70;99.90;;;;;;5065831;28;19925;-62
2023/04/04 04:49:29;;;;;;;;;;;-1.70;99.90;;;;;;5055963;28;20023;-63
2023/04/04 04:52:04;;;;;;;;;;;-1.70;99.90;;;;;;5054335;28;19974;-63
2023/04/04 04:54:42;;;;;;;;;;;-1.70;99.90;;;;;;5052400;28;20316;-63
2023/04/04 04:57:14;;;;;;;;;;;-1.70;99.90;;;;;;5052178;28;20015;-62
2023/04/04 04:59:46;;;;;;;;;;;-1.70;99.90;;;;;;5053116;28;19920;-63
2023/04/04 05:02:19;;;;;;;;;;;-1.80;99.90;;;;;;5053848;28;19925;-63
2023/04/04 05:04:50;;;;;;;;;;;-1.70;99.90;;;;;;5068801;28;19920;-63
2023/04/04 05:07:23;;;;;;;;;;;-1.70;99.90;;;;;;5065458;28;19920;-63
2023/04/04 05:09:55;;;;;;;;;;;-1.80;99.90;;;;;;5052942;28;19939;-63
2023/04/04 05:12:26;;;;;;;;;;;-1.80;99.90;;;;;;5052715;28;19932;-63
2023/04/04 05:14:58;;;;;;;;;;;-1.80;99.90;;;;;;5067193;28;19935;-63
2023/04/04 05:17:30;;;;;;;;;;;-1.80;99.90;;;;;;5061096;28;20408;-63
2023/04/04 05:20:06;;;;;;;;;;;-1.70;99.90;;;;;;5067896;28;20313;-63
2023/04/04 05:22:45;;;;;;;;;;;-1.70;99.90;;;;;;5048671;28;19935;-63
2023/04/04 05:25:22;;;;;;;;;;;-1.40;99.90;;;;;;5045681;28;19931;-63
2023/04/04 05:27:55;;;;;;;;;;;-1.00;99.90;;;;;;5070665;28;19924;-63
2023/04/04 05:30:26;;;;;;;;;;;-1.00;99.90;;;;;;5038081;28;19924;-63
2023/04/04 05:33:09;;;;;;;;;;;-1.00;99.90;;;;;;5052596;28;19924;-63
2023/04/04 05:35:46;;;;;;;;;;;-1.00;99.90;;;;;;5069842;28;20499;-63
2023/04/04 05:38:14;;;;;;;;;;;-1.10;99.90;;;;;;5043156;28;19939;-63
2023/04/04 05:40:52;;;;;;;;;;;-1.20;99.90;;;;;;5055069;28;19920;-63
2023/04/04 05:43:20;;;;;;;;;;;-1.30;99.90;;;;;;5061630;28;19924;-63
2023/04/04 05:45:57;;;;;;;;;;;-1.30;99.90;;;;;;5050833;28;20011;-63
2023/04/04 05:48:35;;;;;;;;;;;-1.30;99.90;;;;;;5054314;28;19924;-63
2023/04/04 05:51:08;;;;;;;;;;;-1.30;99.90;;;;;;5054067;28;19924;-63
2023/04/04 05:53:47;;;;;;;;;;;-1.30;99.90;;;;;;5052932;28;19994;-63
2023/04/04 05:56:27;;;;;;;;;;;-1.30;99.90;;;;;;5037903;28;20311;-63
2023/04/04 05:59:01;;;;;;;;;;;-1.30;99.90;;;;;;5069006;28;19920;-63
2023/04/04 06:01:39;;;;;;;;;;;-1.30;99.90;;;;;;5039335;28;19990;-63
2023/04/04 06:04:13;;;;;;;;;;;-1.30;99.90;;;;;;5054023;28;19920;-63
2023/04/04 06:06:45;;;;;;;;;;;-1.30;99.90;;;;;;5049032;28;19921;-63
2023/04/04 06:09:19;;;;;;;;;;;-1.30;99.90;;;;;;5049742;28;19972;-63
2023/04/04 06:11:50;;;;;;;;;;;-1.20;99.90;;;;;;5064151;28;19926;-63
2023/04/04 06:14:17;;;;;;;;;;;-1.20;99.90;;;;;;5049779;28;19930;-63
2023/04/04 06:16:45;;;;;;;;;;;-1.20;99.90;;;;;;5065132;28;19926;-64
2023/04/04 06:19:17;;;;;;;;;;;-1.10;99.90;;;;;;5066901;28;19944;-63
2023/04/04 06:21:49;;;;;;;;;;;-1.10;99.90;;;;;;5065754;28;20340;-63
2023/04/04 06:24:16;;;;;;;;;;;-1.00;99.90;;;;;;5053568;28;19928;-63
2023/04/04 06:26:50;;;;;;;;;;;-1.00;99.90;;;;;;5051349;28;19927;-66
2023/04/04 06:29:25;;;;;;;;;;;-0.90;99.90;;;;;;5066812;28;19959;-63
2023/04/04 06:31:59;;;;;;;;;;;-0.80;99.90;;;;;;5065518;28;19920;-62
2023/04/04 06:34:39;;;;;;;;;;;-0.80;99.90;;;;;;5059931;28;19970;-62
2023/04/04 06:37:12;;;;;;;;;;;-0.70;99.90;;;;;;5061196;28;19931;-63
2023/04/04 06:39:47;;;;;;;;;;;-0.70;99.90;;;;;;5062580;28;20365;-62
2023/04/04 06:42:25;;;;;;;;;;;-0.60;99.90;;;;;;5049007;28;19920;-63
2023/04/04 06:45:02;;;;;;;;;;;-0.50;99.90;;;;;;5062418;28;19924;-63
2023/04/04 06:47:34;;;;;;;;;;;-0.30;99.90;;;;;;5051213;28;19963;-63
2023/04/04 06:50:06;;;;;;;;;;;-0.20;99.90;;;;;;5058432;28;19924;-63
2023/04/04 06:52:38;;;;;;;;;;;-0.20;99.90;;;;;;5068199;28;19927;-63
2023/04/04 06:55:10;;;;;;;;;;;-0.10;99.90;;;;;;5052170;28;20569;-63
2023/04/04 06:57:43;;;;;;;;;;;-0.10;99.90;;;;;;5061531;28;20284;-63
2023/04/04 07:00:15;;;;;;;;;;;0.00;99.90;;;;;;5048274;28;19960;-63
2023/04/04 07:02:48;;;;;;;;;;;0.00;99.90;;;;;;5059668;28;19921;-62
2023/04/04 07:05:20;;;;;;;;;;;0.20;99.90;;;;;;5067330;28;20007;-63
2023/04/04 07:07:53;;;;;;;;;;;0.40;99.90;;;;;;5061871;28;19924;-63
2023/04/04 07:10:25;;;;;;;;;;;0.40;99.90;;;;;;5063669;28;20006;-63
2023/04/04 07:12:57;;;;;;;;;;;0.50;99.90;;;;;;5067676;28;19924;-63
2023/04/04 07:15:29;;;;;;;;;;;0.50;99.90;;;;;;5069016;28;19920;-63
2023/04/04 07:17:58;;;;;;;;;;;0.60;99.90;;;;;;5069499;28;19927;-63
2023/04/04 07:20:31;;;;;;;;;;;0.60;99.90;;;;;;5052501;28;19930;-63
2023/04/04 07:23:02;;;;;;;;;;;0.70;99.90;;;;;;5067894;28;20347;-63
2023/04/04 07:25:34;;;;;;;;;;;0.80;99.90;;;;;;5063940;28;19920;-63
2023/04/04 07:28:02;;;;;;;;;;;0.90;99.90;;;;;;5068491;28;20392;-63
2023/04/04 07:30:34;;;;;;;;;;;0.90;99.90;;;;;;5054782;28;19942;-63
2023/04/04 07:33:06;;;;;;;;;;;0.90;99.90;;;;;;5071012;28;19921;-63
2023/04/04 07:35:38;;;;;;;;;;;1.00;99.90;;;;;;5067288;28;19924;-63
2023/04/04 07:38:10;;;;;;;;;;;1.00;99.90;;;;;;5069526;28;19955;-63
2023/04/04 07:40:42;;;;;;;;;;;1.10;99.90;;;;;;5067118;28;19920;-63
2023/04/04 07:43:14;;;;;;;;;;;1.20;99.90;;;;;;5070867;28;20386;-63
2023/04/04 07:45:46;;;;;;;;;;;1.20;99.90;;;;;;5068019;28;19924;-63
2023/04/04 07:48:18;;;;;;;;;;;1.30;99.90;;;;;;5070684;28;19985;-63
2023/04/04 07:50:50;;;;;;;;;;;1.30;99.90;;;;;;5067935;28;19931;-62
2023/04/04 07:53:22;;;;;;;;;;;1.40;99.90;;;;;;5063294;28;19931;-63
2023/04/04 07:55:54;;;;;;;;;;;1.40;99.90;;;;;;5052887;28;19921;-63
2023/04/04 07:58:26;;;;;;;;;;;1.50;99.90;;;;;;5067620;28;19975;-63
2023/04/04 08:00:58;;;;;;;;;;;1.60;99.90;;;;;;5075293;28;20020;-63
2023/04/04 08:03:29;;;;;;;;;;;1.70;99.90;;;;;;5071637;28;19920;-63
2023/04/04 08:06:01;;;;;;;;;;;1.80;99.90;;;;;;5076739;28;19924;-63
2023/04/04 08:08:28;;;;;;;;;;;2.00;99.90;;;;;;5074299;28;19921;-63
2023/04/04 08:11:00;;;;;;;;;;;2.10;99.90;;;;;;5069683;28;19928;-63
2023/04/04 08:13:32;;;;;;;;;;;2.30;99.90;;;;;;5056707;28;19939;-63
2023/04/04 08:16:05;;;;;;;;;;;2.40;99.90;;;;;;5074744;28;19962;-63
2023/04/04 08:18:37;;;;;;;;;;;2.50;99.90;;;;;;5070892;28;19927;-63
2023/04/04 08:21:09;;;;;;;;;;;2.70;99.90;;;;;;5070343;28;20339;-63
2023/04/04 08:23:40;;;;;;;;;;;2.70;99.90;;;;;;5041621;28;20343;-63
2023/04/04 08:26:12;;;;;;;;;;;2.90;99.90;;;;;;5055370;28;19920;-63
2023/04/04 08:28:39;;;;;;;;;;;3.10;99.90;;;;;;5058457;28;19920;-63
2023/04/04 08:31:11;;;;;;;;;;;3.20;99.90;;;;;;5069918;28;19934;-63
2023/04/04 08:33:43;;;;;;;;;;;3.20;99.90;;;;;;5070875;28;19920;-63
2023/04/04 08:36:11;;;;;;;;;;;3.30;99.90;;;;;;5072405;28;20011;-63
2023/04/04 08:38:45;;;;;;;;;;;3.30;99.90;;;;;;5063536;28;20352;-63
2023/04/04 08:41:18;;;;;;;;;;;3.30;99.90;;;;;;5069822;28;19924;-63
2023/04/04 08:43:46;;;;;;;;;;;3.50;99.90;;;;;;5054587;28;19991;-63
2023/04/04 08:46:14;;;;;;;;;;;3.70;99.90;;;;;;5070092;28;19971;-63
2023/04/04 08:48:47;;;;;;;;;;;3.90;99.90;;;;;;5070853;28;20019;-63
2023/04/04 08:51:21;;;;;;;;;;;3.90;99.90;;;;;;5073704;28;19963;-63
2023/04/04 08:53:53;;;;;;;;;;;3.80;99.90;;;;;;5073574;28;19931;-63
2023/04/04 08:56:25;;;;;;;;;;;3.70;99.90;;;;;;5073739;28;19920;-64
2023/04/04 08:58:57;;;;;;;;;;;3.80;99.90;;;;;;5072767;28;20304;-63
2023/04/04 09:01:29;;;;;;;;;;;3.90;99.90;;;;;;5073277;28;19924;-63
2023/04/04 09:03:57;;;;;;;;;;;3.90;99.90;;;;;;5055969;28;19920;-63
2023/04/04 09:06:28;;;;;;;;;;;3.90;99.90;;;;;;5056701;28;19928;-63
2023/04/04 09:09:01;;;;;;;;;;;3.70;99.90;;;;;;5072379;28;20027;-63
2023/04/04 09:11:33;;;;;;;;;;;3.80;99.90;;;;;;5073323;28;19924;-63
2023/04/04 09:14:05;;;;;;;;;;;3.90;99.90;;;;;;5073424;28;19920;-63
2023/04/04 09:16:37;;;;;;;;;;;4.00;99.90;;;;;;5073476;28;20373;-63
2023/04/04 09:19:09;;;;;;;;;;;3.90;99.90;;;;;;5070681;28;19921;-63
2023/04/04 09:21:37;;;;;;;;;;;3.90;99.90;;;;;;5072514;28;19939;-63
2023/04/04 09:24:09;;;;;;;;;;;3.90;99.90;;;;;;5071497;28;19924;-63
2023/04/04 09:26:53;;;;;;;;;;;4.00;99.90;;;;;;5071977;28;20047;-63
2023/04/04 09:29:27;;;;;;;;;;;4.10;99.90;;;;;;5072500;28;19920;-63
2023/04/04 09:32:00;;;;;;;;;;;4.40;99.90;;;;;;5065704;28;19932;-63
2023/04/04 09:34:34;;;;;;;;;;;4.50;99.90;;;;;;5072474;28;19928;-63
2023/04/04 09:37:07;;;;;;;;;;;4.60;99.90;;;;;;5064992;28;19920;-63
2023/04/04 09:39:39;;;;;;;;;;;4.60;99.90;;;;;;5071350;28;20011;-64
2023/04/04 09:42:12;;;;;;;;;;;4.70;99.90;;;;;;5055861;28;20297;-63
2023/04/04 09:44:46;;;;;;;;;;;4.70;99.90;;;;;;5066853;28;19921;-64
2023/04/04 09:47:23;;;;;;;;;;;4.70;99.90;;;;;;5068897;28;19924;-64
2023/04/04 09:49:59;;;;;;;;;;;4.60;99.90;;;;;;5055893;28;19964;-63
2023/04/04 09:52:35;;;;;;;;;;;4.50;99.90;;;;;;5070024;28;19935;-63
2023/04/04 09:55:03;;;;;;;;;;;4.50;99.90;;;;;;5051676;28;19920;-63
2023/04/04 09:57:31;;;;;;;;;;;4.60;99.80;;;;;;5051652;28;20437;-63
2023/04/04 10:00:07;;;;;;;;;;;4.50;99.30;;;;;;5054490;28;19974;-64
2023/04/04 10:02:45;;;;;;;;;;;4.50;98.10;;;;;;5064768;28;20369;-63
2023/04/04 10:05:19;;;;;;;;;;;4.40;99.20;;;;;;5052779;28;19928;-63
2023/04/04 10:07:47;;;;;;;;;;;4.40;99.30;;;;;;5068582;28;19977;-63
2023/04/04 10:10:20;;;;;;;;;;;4.60;99.30;;;;;;5047416;28;19920;-63
2023/04/04 10:12:56;;;;;;;;;;;4.70;99.20;;;;;;5055030;28;19924;-63
2023/04/04 10:15:35;;;;;;;;;;;5.00;99.20;;;;;;5052107;28;19990;-64
2023/04/04 10:18:09;;;;;;;;;;;5.20;98.70;;;;;;5067754;28;19966;-63
2023/04/04 10:20:42;;;;;;;;;;;5.20;98.90;;;;;;5064207;28;20001;-63
2023/04/04 10:23:16;;;;;;;;;;;5.20;98.00;;;;;;5070631;28;19924;-63
2023/04/04 10:25:50;;;;;;;;;;;5.00;96.30;;;;;;5068988;28;19920;-64
2023/04/04 10:28:23;;;;;;;;;;;4.90;96.80;;;;;;5065007;28;19925;-63
2023/04/04 10:31:14;;;;;;;;;;;4.70;98.00;;;;;;5058553;28;20389;-63
2023/04/04 10:34:04;;;;;;;;;;;4.70;97.70;;;;;;5064868;28;19924;-64
2023/04/04 10:37:09;;;;;;;;;;;4.70;98.70;;;;;;5063837;28;19924;-63
2023/04/04 10:39:56;;;;;;;;;;;4.60;98.90;;;;;;5018473;28;19921;-63
2023/04/04 10:42:31;;;;;;;;;;;4.60;98.30;;;;;;5065073;28;20300;-63
2023/04/04 10:44:59;;;;;;;;;;;4.70;99.50;;;;;;5050978;28;20011;-64
2023/04/04 10:47:31;;;;;;;;;;;4.80;99.30;;;;;;5063804;28;19927;-63
2023/04/04 10:50:09;;;;;;;;;;;4.80;98.70;;;;;;5068942;28;19927;-63
2023/04/04 10:52:42;;;;;;;;;;;5.00;97.20;;;;;;5066477;28;19931;-63
2023/04/04 10:55:11;;;;;;;;;;;5.00;96.90;;;;;;5065591;28;20415;-63
2023/04/04 10:57:44;;;;;;;;;;;5.10;97.30;;;;;;5068496;28;19920;-63
2023/04/04 11:00:17;;;;;;;;;;;5.20;97.60;;;;;;5063849;28;19967;-63
2023/04/04 11:02:50;;;;;;;;;;;5.30;97.90;;;;;;5051718;28;19924;-64
2023/04/04 11:05:23;;;;;;;;;;;5.50;96.40;;;;;;5073751;28;19924;-63
2023/04/04 11:08:12;;;;;;;;;;;5.70;96.20;;;;;;5052072;28;19927;-64
2023/04/04 11:10:48;;;;;;;;;;;5.90;99.90;;;;;;5067266;28;19920;-63
2023/04/04 11:13:28;;;;;;;;;;;6.10;96.00;;;;;;5051510;28;19928;-63
2023/04/04 11:16:00;;;;;;;;;;;6.10;94.60;;;;;;5064628;28;19921;-62
2023/04/04 11:18:40;;;;;;;;;;;6.10;93.80;;;;;;5067113;28;20376;-63
2023/04/04 11:21:15;;;;;;;;;;;6.10;94.00;;;;;;5034595;28;20014;-63
2023/04/04 11:23:47;;;;;;;;;;;6.30;94.20;;;;;;5065242;28;20414;-63
2023/04/04 11:26:26;;;;;;;;;;;6.40;95.10;;;;;;5048078;28;19920;-62
2023/04/04 11:29:07;;;;;;;;;;;6.20;93.80;;;;;;5066873;28;19974;-63
2023/04/04 11:31:42;;;;;;;;;;;6.20;94.60;;;;;;5050229;28;20034;-62
2023/04/04 11:34:09;;;;;;;;;;;6.40;96.20;;;;;;5050856;28;19921;-62
2023/04/04 11:36:43;;;;;;;;;;;6.50;97.00;;;;;;5068402;28;19928;-63
2023/04/04 11:39:27;;;;;;;;;;;6.60;96.70;;;;;;5065903;28;19931;-62
2023/04/04 11:42:06;;;;;;;;;;;6.60;96.60;;;;;;5051275;28;19924;-62
2023/04/04 11:44:40;;;;;;;;;;;6.60;96.20;;;;;;5069493;28;19924;-63
2023/04/04 11:47:12;;;;;;;;;;;6.50;94.20;;;;;;5068298;28;19932;-61
2023/04/04 11:49:48;;;;;;;;;;;6.30;94.40;;;;;;5067397;28;19920;-63
2023/04/04 11:52:20;;;;;;;;;;;6.20;93.20;;;;;;5051707;28;19933;-62
2023/04/04 11:54:52;;;;;;;;;;;6.20;93.80;;;;;;5064127;28;19970;-62
2023/04/04 11:57:23;;;;;;;;;;;6.10;95.50;;;;;;5062913;28;19927;-62
2023/04/04 11:59:56;;;;;;;;;;;6.20;95.00;;;;;;5068168;28;19925;-62
2023/04/04 12:02:36;;;;;;;;;;;6.10;95.80;;;;;;5064490;28;20274;-62
2023/04/04 12:05:10;;;;;;;;;;;6.10;95.70;;;;;;5063043;28;19927;-62
2023/04/04 12:07:43;;;;;;;;;;;6.20;94.70;;;;;;5062521;28;19978;-62
2023/04/04 12:10:15;;;;;;;;;;;6.20;94.40;;;;;;5069140;28;20384;-62
2023/04/04 12:12:48;;;;;;;;;;;6.10;93.10;;;;;;5062173;28;19925;-62
2023/04/04 12:15:20;;;;;;;;;;;6.10;93.30;;;;;;5069829;28;19927;-62
2023/04/04 12:17:52;;;;;;;;;;;6.10;95.70;;;;;;5069485;28;19928;-62
2023/04/04 12:20:24;;;;;;;;;;;6.00;94.10;;;;;;5068464;28;19927;-62
2023/04/04 12:22:52;;;;;;;;;;;5.90;95.00;;;;;;5048703;28;20437;-62
2023/04/04 12:25:27;;;;;;;;;;;5.90;95.40;;;;;;5065396;28;19927;-62
2023/04/04 12:28:01;;;;;;;;;;;6.20;95.00;;;;;;5050589;28;19975;-62
2023/04/04 12:30:33;;;;;;;;;;;6.40;95.90;;;;;;5064212;28;19921;-62
2023/04/04 12:33:05;;;;;;;;;;;6.50;94.10;;;;;;5066537;28;19973;-62
2023/04/04 12:35:37;;;;;;;;;;;6.60;94.00;;;;;;5045222;28;19924;-62
2023/04/04 12:38:15;;;;;;;;;;;6.70;93.70;;;;;;5064059;28;19920;-62
2023/04/04 12:40:50;;;;;;;;;;;6.90;94.10;;;;;;5071058;28;20619;-62
2023/04/04 12:43:21;;;;;;;;;;;7.00;93.70;;;;;;5064665;28;20496;-62
2023/04/04 12:45:55;;;;;;;;;;;7.10;93.10;;;;;;5061700;28;19954;-62
2023/04/04 12:48:26;;;;;;;;;;;7.30;94.70;;;;;;5065783;28;20006;-62
2023/04/04 12:50:58;;;;;;;;;;;7.40;92.80;;;;;;5069289;28;19930;-62
2023/04/04 12:53:31;;;;;;;;;;;7.40;92.10;;;;;;5070740;28;19973;-62
2023/04/04 12:56:03;;;;;;;;;;;7.30;92.00;;;;;;5071182;28;19925;-62
2023/04/04 12:58:36;;;;;;;;;;;7.10;92.80;;;;;;5054403;28;19927;-63
2023/04/04 13:01:09;;;;;;;;;;;7.10;91.50;;;;;;5058727;28;19966;-64
2023/04/04 13:03:43;;;;;;;;;;;7.30;91.20;;;;;;5061803;28;20389;-65
2023/04/04 13:06:18;;;;;;;;;;;7.40;91.80;;;;;;5066110;28;20051;-63
2023/04/04 13:08:54;;;;;;;;;;;7.50;92.10;;;;;;5047464;28;19997;-63
2023/04/04 13:11:48;;;;;;;;;;;7.60;93.00;;;;;;5072497;28;19928;-62
2023/04/04 13:14:21;;;;;;;;;;;7.80;93.30;;;;;;5070040;28;19925;-62
2023/04/04 13:17:04;;;;;;;;;;;7.90;89.20;;;;;;5049456;28;20395;-63
2023/04/04 13:19:38;;;;;;;;;;;7.90;87.40;;;;;;5051225;28;19920;-62
2023/04/04 13:22:12;;;;;;;;;;;8.00;91.00;;;;;;5067173;28;19927;-62
2023/04/04 13:24:45;;;;;;;;;;;8.00;88.20;;;;;;5066457;28;20006;-62
2023/04/04 13:27:20;;;;;;;;;;;8.10;96.10;;;;;;5070312;28;19924;-62
2023/04/04 13:29:54;;;;;;;;;;;8.20;92.50;;;;;;5054600;28;20051;-62
2023/04/04 13:32:27;;;;;;;;;;;8.20;90.00;;;;;;5047789;28;19931;-62
2023/04/04 13:34:59;;;;;;;;;;;8.00;90.20;;;;;;5067438;28;19930;-61
2023/04/04 13:37:32;;;;;;;;;;;7.90;90.40;;;;;;5064543;28;19927;-62
2023/04/04 13:40:07;;;;;;;;;;;7.90;90.20;;;;;;5066939;28;19920;-62
2023/04/04 13:42:40;;;;;;;;;;;8.10;88.90;;;;;;5052741;28;19920;-62
2023/04/04 13:45:13;;;;;;;;;;;8.20;89.20;;;;;;5064677;28;19921;-62
2023/04/04 13:47:45;;;;;;;;;;;8.30;87.00;;;;;;5063411;28;19925;-62
2023/04/04 13:50:17;;;;;;;;;;;8.40;90.70;;;;;;5065119;28;20336;-62
2023/04/04 13:52:52;;;;;;;;;;;8.50;88.40;;;;;;5072236;28;20003;-62
2023/04/04 13:55:25;;;;;;;;;;;8.60;86.00;;;;;;5062337;28;20011;-62
2023/04/04 13:57:57;;;;;;;;;;;8.70;86.90;;;;;;5069610;28;19951;-62
2023/04/04 14:00:24;;;;;;;;;;;8.90;87.40;;;;;;5067898;28;19920;-62
2023/04/04 14:02:56;;;;;;;;;;;9.10;85.40;;;;;;5066533;28;20514;-62
2023/04/04 14:05:28;;;;;;;;;;;9.00;88.40;;;;;;5066164;28;19933;-62
2023/04/04 14:08:00;;;;;;;;;;;9.00;84.90;;;;;;5048788;28;19920;-62
2023/04/04 14:10:31;;;;;;;;;;;8.90;87.10;;;;;;5062866;28;19928;-62
2023/04/04 14:13:03;;;;;;;;;;;8.80;85.70;;;;;;5064584;28;19927;-62
2023/04/04 14:15:35;;;;;;;;;;;8.80;85.20;;;;;;5051511;28;19928;-62
2023/04/04 14:18:07;;;;;;;;;;;9.00;85.60;;;;;;5067774;28;20343;-62
2023/04/04 14:20:38;;;;;;;;;;;9.10;86.70;;;;;;5067707;28;19921;-62
2023/04/04 14:23:10;;;;;;;;;;;9.40;80.90;;;;;;5054977;28;19939;-62
2023/04/04 14:25:42;;;;;;;;;;;9.50;84.50;;;;;;5051894;28;19928;-62
2023/04/04 14:28:13;;;;;;;;;;;9.70;78.10;;;;;;5067026;28;19928;-62
2023/04/04 14:30:45;;;;;;;;;;;9.90;79.10;;;;;;5064071;28;19925;-62
2023/04/04 14:33:16;;;;;;;;;;;10.10;81.40;;;;;;5056788;28;19920;-62
2023/04/04 14:35:49;;;;;;;;;;;10.10;82.70;;;;;;5066538;28;19920;-62
2023/04/04 14:38:21;;;;;;;;;;;10.10;81.50;;;;;;5071340;28;19920;-62
2023/04/04 14:40:48;;;;;;;;;;;10.10;80.10;;;;;;5052074;28;20429;-62
2023/04/04 14:43:19;;;;;;;;;;;10.30;79.80;;;;;;5070467;28;20392;-62
2023/04/04 14:45:51;;;;;;;;;;;10.40;80.90;;;;;;5066281;28;19921;-63
2023/04/04 14:48:23;;;;;;;;;;;10.30;74.40;;;;;;5069104;28;19920;-63
2023/04/04 14:50:55;;;;;;;;;;;10.40;74.60;;;;;;5052583;28;19924;-62
2023/04/04 14:53:27;;;;;;;;;;;10.40;76.40;;;;;;5063424;28;19974;-63
2023/04/04 14:55:59;;;;;;;;;;;10.70;74.90;;;;;;5063613;28;20384;-62